Aviation Digital Data Service (ADDS)

Output produced by METARs form (0435 UTC 03 September 2014)
found at http://aviationweather.gov/adds/metars/
 
KPOU 022328Z 0300/0324 20008KT P6SM VCSH SCT050 BKN250 
     FM030300 27006KT 6SM -SHRA BR SCT020 OVC050 
     TEMPO 0303/0307 1SM TSRA BKN020CB OVC040 
     FM030700 28003KT 5SM BR BKN025 BKN250 
     FM031200 30006KT P6SM FEW050 SCT250